Time;durP1;ratioP1;P1;durP2;ratioP2;P2;SDS_P1;SDS_P2;PMS_P1;PMS_P2;Temp;Humidity;BMP_temperature;BMP_pressure;BME280_temperature;BME280_humidity;BME280_pressure;Samples;Min_cycle;Max_cycle;Signal;HPM_P1;HPM_P2
2022/05/10 00:00:17;;;;;;;4.83;4.33;;;;;;;17.43;43.16;94994.66;4801610;29;20250;-82
2022/05/10 00:02:47;;;;;;;5.30;4.87;;;;;;;17.35;43.07;94993.94;4767978;30;20268;-82
2022/05/10 00:05:13;;;;;;;7.87;4.27;;;;;;;17.75;41.90;94989.84;4794574;30;20447;-82
2022/05/10 00:07:39;;;;;;;4.30;3.67;;;;;;;17.51;42.90;94991.66;4785492;29;20460;-82
2022/05/10 00:10:09;;;;;;;7.10;4.00;;;;;;;17.50;42.98;94987.41;4812597;29;20496;-82
2022/05/10 00:12:35;;;;;;;7.63;4.30;;;;;;;17.25;43.75;94988.41;4819964;29;20471;-82
2022/05/10 00:15:01;;;;;;;5.70;4.23;;;;;;;17.17;43.71;94989.53;4785043;30;20428;-81
2022/05/10 00:17:34;;;;;;;5.23;3.83;;;;;;;17.02;44.56;94985.72;4788067;29;20424;-82
2022/05/10 00:19:59;;;;;;;3.77;3.40;;;;;;;17.30;44.15;94985.91;4803900;29;20498;-81
2022/05/10 00:22:25;;;;;;;9.87;4.20;;;;;;;17.29;43.88;94984.28;4788542;30;20489;-81
2022/05/10 00:24:50;;;;;;;8.70;4.53;;;;;;;16.96;44.53;94982.16;4784221;30;20191;-81
2022/05/10 00:27:17;;;;;;;3.97;3.10;;;;;;;16.66;45.97;94980.28;4796329;29;20237;-81
2022/05/10 00:29:43;;;;;;;5.10;4.60;;;;;;;16.85;45.09;94981.06;4801586;29;20597;-82
2022/05/10 00:32:09;;;;;;;4.80;4.30;;;;;;;16.94;44.79;94982.38;4792105;30;20561;-82
2022/05/10 00:34:35;;;;;;;6.27;3.77;;;;;;;16.82;45.23;94984.16;4802250;29;20455;-83
2022/05/10 00:37:01;;;;;;;6.27;4.63;;;;;;;16.55;45.86;94983.69;4801729;29;20799;-82
2022/05/10 00:39:26;;;;;;;4.80;4.10;;;;;;;16.37;46.46;94982.69;4803235;29;20435;-82
2022/05/10 00:42:02;;;;;;;4.60;3.83;;;;;;;16.57;45.85;94992.19;4806728;29;20443;-81
2022/05/10 00:44:49;;;;;;;9.70;4.40;;;;;;;16.59;45.81;94984.84;4788831;29;20192;-82
2022/05/10 00:47:45;;;;;;;4.37;3.97;;;;;;;16.39;46.59;94985.09;4803338;29;20812;-83
2022/05/10 00:50:19;;;;;;;7.07;5.03;;;;;;;16.06;47.33;94986.28;4782774;30;20466;-81
2022/05/10 00:53:26;;;;;;;5.17;4.13;;;;;;;16.30;46.63;94987.22;4796275;29;20435;-82
2022/05/10 00:56:06;;;;;;;6.77;5.00;;;;;;;16.34;45.99;94990.25;4739716;30;20448;-82
2022/05/10 00:58:48;;;;;;;5.30;4.80;;;;;;;16.11;46.91;94983.00;4784193;30;20459;-82
2022/05/10 01:01:19;;;;;;;4.03;3.73;;;;;;;16.15;46.92;94990.25;4785797;30;20510;-82
2022/05/10 01:03:57;;;;;;;5.60;5.10;;;;;;;16.27;46.39;94984.22;4784917;30;20412;-83
2022/05/10 01:06:30;;;;;;;4.73;4.30;;;;;;;16.25;46.73;94986.28;4785035;30;20479;-82
2022/05/10 01:16:50;;;;;;;;;;;;;;;;;;;;;
2022/05/10 01:23:56;;;;;;;5.03;4.53;;;;;;;16.35;46.45;94963.59;4728242;30;20982;-82
2022/05/10 01:41:26;;;;;;;5.23;4.40;;;;;;;16.52;45.40;94958.50;4788279;29;20501;-82
2022/05/10 01:44:13;;;;;;;5.73;4.63;;;;;;;16.50;45.58;94967.69;4778891;30;20664;-82
2022/05/10 01:46:39;;;;;;;5.93;5.33;;;;;;;16.45;45.46;94963.06;4777403;30;20460;-81
2022/05/10 01:49:22;;;;;;;5.30;4.33;;;;;;;16.16;46.31;94965.47;4778493;30;20824;-82
2022/05/10 01:51:56;;;;;;;5.40;4.23;;;;;;;16.29;46.53;94956.56;4784494;30;20243;-82
2022/05/10 01:54:41;;;;;;;5.63;4.80;;;;;;;16.33;46.20;94964.84;4801043;30;20507;-84
2022/05/10 01:57:15;;;;;;;5.27;4.27;;;;;;;16.37;46.14;94960.72;4784198;30;20435;-81
2022/05/10 01:59:47;;;;;;;4.90;4.43;;;;;;;16.48;45.47;94962.59;4784390;30;20446;-83
2022/05/10 02:02:16;;;;;;;4.13;3.80;;;;;;;16.53;45.62;94959.31;4801940;29;20521;-83
2022/05/10 02:04:44;;;;;;;5.50;4.83;;;;;;;16.49;45.71;94960.81;4816989;29;20441;-83
2022/05/10 02:07:16;;;;;;;4.67;4.27;;;;;;;16.38;46.04;94959.72;4799292;30;20451;-82
2022/05/10 02:09:48;;;;;;;4.80;4.43;;;;;;;16.24;46.97;94961.72;4800330;30;20446;-83
2022/05/10 02:12:14;;;;;;;4.67;4.17;;;;;;;16.10;47.54;94966.31;4800369;30;20437;-82
2022/05/10 02:14:52;;;;;;;5.10;4.60;;;;;;;16.19;46.83;94958.91;4800204;29;20478;-82
2022/05/10 02:17:37;;;;;;;5.60;3.83;;;;;;;16.20;46.83;94961.34;4784847;29;20186;-82
2022/05/10 02:20:15;;;;;;;5.43;4.40;;;;;;;15.97;47.63;94964.66;4801947;29;20822;-83
2022/05/10 02:22:50;;;;;;;4.80;4.40;;;;;;;15.97;47.48;94959.38;4784262;29;20469;-82
2022/05/10 02:25:39;;;;;;;5.87;4.33;;;;;;;15.97;47.14;94969.94;4800146;30;20407;-81
2022/05/10 02:28:40;;;;;;;6.00;4.87;;;;;;;16.12;47.52;94974.81;4773920;30;20464;-82
2022/05/10 02:31:12;;;;;;;9.97;4.93;;;;;;;16.28;47.19;94962.88;4787105;29;20446;-82
2022/05/10 02:33:38;;;;;;;4.90;4.43;;;;;;;16.02;47.13;94966.63;4784123;30;20435;-83
2022/05/10 02:36:04;;;;;;;5.37;4.87;;;;;;;15.66;48.22;94960.25;4806370;29;20434;-82
2022/05/10 02:38:35;;;;;;;6.57;4.80;;;;;;;15.82;47.42;94964.19;4801692;29;20769;-82
2022/05/10 02:41:07;;;;;;;4.40;3.93;;;;;;;15.62;48.29;94969.63;4769307;30;20299;-82
2022/05/10 02:43:40;;;;;;;3.80;3.50;;;;;;;15.58;48.02;94963.19;4760982;30;20600;-83
2022/05/10 02:46:06;;;;;;;5.73;4.60;;;;;;;15.33;49.43;94961.38;4781540;30;20488;-82
2022/05/10 02:48:34;;;;;;;6.63;4.83;;;;;;;15.29;49.49;94967.28;4763536;30;20456;-82
2022/05/10 02:51:00;;;;;;;4.60;4.20;;;;;;;15.53;48.86;94966.47;4764584;30;20244;-81
2022/05/10 02:53:26;;;;;;;5.53;4.63;;;;;;;15.62;48.33;94964.38;4764146;30;20469;-82
2022/05/10 02:56:01;;;;;;;5.70;4.80;;;;;;;15.75;48.12;94964.25;4769293;30;20199;-81
2022/05/10 02:58:32;;;;;;;4.87;4.47;;;;;;;15.78;47.72;94966.47;4785684;30;20505;-81
2022/05/10 03:01:07;;;;;;;4.50;4.10;;;;;;;15.49;49.44;94961.84;4770939;30;20432;-82
2022/05/10 03:03:34;;;;;;;6.30;5.47;;;;;;;15.59;48.93;94964.78;4770300;30;20801;-82
2022/05/10 03:06:00;;;;;;;6.47;3.70;;;;;;;15.69;48.28;94965.13;4765726;30;20441;-82
2022/05/10 03:08:25;;;;;;;4.60;4.23;;;;;;;15.33;49.21;94971.13;4767634;30;20479;-82
2022/05/10 03:10:51;;;;;;;4.60;4.20;;;;;;;15.36;48.96;94970.69;4759406;30;20198;-82
2022/05/10 03:13:16;;;;;;;6.17;4.60;;;;;;;15.42;49.04;94970.63;4785643;30;20221;-82
2022/05/10 03:15:42;;;;;;;4.80;4.40;;;;;;;15.26;49.76;94963.25;4781486;30;20201;-82
2022/05/10 03:18:08;;;;;;;5.00;4.60;;;;;;;15.15;50.38;94970.03;4802972;29;20435;-82
2022/05/10 03:20:33;;;;;;;5.50;5.00;;;;;;;15.24;49.46;94962.66;4798043;30;20194;-82
2022/05/10 03:22:59;;;;;;;8.70;5.47;;;;;;;15.46;49.71;94967.53;4789034;30;20221;-82
2022/05/10 03:25:25;;;;;;;8.70;4.40;;;;;;;15.48;49.65;94976.03;4803176;30;20197;-82
2022/05/10 03:27:51;;;;;;;8.30;4.60;;;;;;;15.06;49.73;94971.31;4795406;30;20222;-82
2022/05/10 03:30:17;;;;;;;5.73;4.27;;;;;;;15.30;49.74;94972.34;4769725;30;20432;-83
2022/05/10 03:32:43;;;;;;;6.90;4.30;;;;;;;15.26;49.59;94970.38;4779627;29;20227;-82
2022/05/10 03:35:11;;;;;;;4.90;4.10;;;;;;;15.49;49.32;94975.03;4782636;30;20426;-82
2022/05/10 03:37:36;;;;;;;5.60;4.57;;;;;;;15.60;49.04;94969.84;4776646;30;20440;-81
2022/05/10 03:40:02;;;;;;;4.50;4.10;;;;;;;15.93;47.38;94981.13;4775094;30;21070;-82
2022/05/10 03:42:28;;;;;;;4.70;4.10;;;;;;;15.79;47.64;94981.28;4788882;29;20189;-82
2022/05/10 03:44:54;;;;;;;4.87;3.90;;;;;;;15.71;47.47;94978.91;4804707;29;20464;-82
2022/05/10 03:47:24;;;;;;;9.10;5.43;;;;;;;15.84;47.42;94982.44;4803625;29;20202;-81
2022/05/10 03:49:49;;;;;;;4.67;4.27;;;;;;;15.83;47.63;94981.63;4783592;30;20217;-82
2022/05/10 03:52:16;;;;;;;8.20;5.30;;;;;;;15.75;48.00;94988.00;4787848;30;20427;-81
2022/05/10 03:54:42;;;;;;;8.30;4.77;;;;;;;15.92;47.94;94984.81;4787012;30;20213;-82
2022/05/10 03:57:09;;;;;;;6.23;5.23;;;;;;;15.89;47.93;94991.31;4800909;29;20427;-82
2022/05/10 03:59:37;;;;;;;8.03;6.20;;;;;;;15.93;47.78;94992.50;4803145;29;20431;-82
2022/05/10 04:02:03;;;;;;;6.33;5.07;;;;;;;16.04;47.76;94990.16;4793072;30;20929;-82
2022/05/10 04:04:28;;;;;;;6.33;4.50;;;;;;;16.11;47.24;94993.56;4784609;30;20477;-82
2022/05/10 04:06:54;;;;;;;9.33;5.30;;;;;;;16.19;47.26;94988.75;4769773;30;20596;-82
2022/05/10 04:09:19;;;;;;;7.10;6.40;;;;;;;16.29;47.13;94995.38;4785932;30;20285;-82
2022/05/10 04:11:46;;;;;;;5.83;5.30;;;;;;;16.39;46.64;95001.75;4804202;29;20181;-84
2022/05/10 04:14:11;;;;;;;7.10;5.93;;;;;;;16.48;46.27;94994.31;4792575;29;20234;-82
2022/05/10 04:16:37;;;;;;;9.07;5.40;;;;;;;16.36;46.80;94996.09;4804627;29;20439;-81
2022/05/10 04:19:03;;;;;;;5.83;5.20;;;;;;;16.43;46.38;95006.56;4786492;30;20201;-81
2022/05/10 04:21:28;;;;;;;12.77;6.57;;;;;;;16.33;46.26;95007.09;4802256;30;20197;-82
2022/05/10 04:23:54;;;;;;;6.03;5.50;;;;;;;16.13;47.30;95002.84;4816948;29;20193;-82
2022/05/10 04:26:19;;;;;;;17.17;6.27;;;;;;;16.68;46.12;95001.19;4803210;29;20228;-83
2022/05/10 04:28:46;;;;;;;8.00;5.83;;;;;;;16.77;45.29;95003.31;4803173;29;20221;-82
2022/05/10 04:31:12;;;;;;;7.80;5.63;;;;;;;16.45;46.22;95004.50;4791464;30;20188;-82
2022/05/10 04:33:38;;;;;;;8.00;6.17;;;;;;;16.34;46.57;94998.16;4805001;30;20519;-82
2022/05/10 04:36:04;;;;;;;8.53;6.23;;;;;;;15.83;47.20;95005.41;4816473;29;20422;-82
2022/05/10 04:38:30;;;;;;;9.57;5.80;;;;;;;15.98;47.74;94997.94;4804611;29;20446;-82
2022/05/10 04:43:40;;;;;;;7.43;6.40;;;;;;;16.25;47.24;94999.47;4822418;29;20242;-82
2022/05/10 04:46:06;;;;;;;8.57;6.63;;;;;;;16.78;46.36;95010.19;4812868;29;20435;-81
2022/05/10 04:48:35;;;;;;;7.93;7.23;;;;;;;17.32;44.24;94997.06;4803034;29;20224;-82
2022/05/10 04:51:02;;;;;;;12.73;5.00;;;;;;;17.52;47.74;95009.16;4786808;30;20426;-83
2022/05/10 04:53:28;;;;;;;10.57;7.30;;;;;;;17.64;44.35;95012.63;4787180;30;20435;-83
2022/05/10 04:55:53;;;;;;;8.73;6.33;;;;;;;17.91;43.56;95015.66;4786112;30;20502;-82
2022/05/10 04:58:19;;;;;;;11.80;7.00;;;;;;;17.87;43.08;95018.97;4786127;30;20190;-83
2022/05/10 05:00:45;;;;;;;8.33;7.43;;;;;;;16.93;45.42;95017.75;4787283;30;20189;-83
2022/05/10 05:03:10;;;;;;;10.17;8.13;;;;;;;17.54;44.09;95015.03;4793468;30;20557;-83
2022/05/10 05:05:36;;;;;;;10.63;7.20;;;;;;;17.66;43.56;95020.31;4783724;30;20186;-82
2022/05/10 05:08:02;;;;;;;11.90;8.00;;;;;;;17.24;44.78;95013.25;4767936;30;20246;-82
2022/05/10 05:10:28;;;;;;;10.20;6.67;;;;;;;17.71;44.36;95025.75;4783609;30;20178;-82
2022/05/10 05:12:54;;;;;;;10.43;6.43;;;;;;;18.06;43.32;95023.13;4767389;30;20432;-83
2022/05/10 05:15:20;;;;;;;13.67;7.20;;;;;;;18.33;42.60;95025.28;4784449;30;20193;-83
2022/05/10 05:17:45;;;;;;;10.43;6.87;;;;;;;18.30;42.55;95015.94;4788401;29;20189;-82
2022/05/10 05:20:12;;;;;;;9.63;7.73;;;;;;;18.67;41.93;95020.16;4803340;29;20434;-83
2022/05/10 05:22:38;;;;;;;8.47;6.73;;;;;;;18.26;42.37;95014.00;4803125;29;20187;-83
2022/05/10 05:25:05;;;;;;;7.80;6.80;;;;;;;18.68;41.90;95011.13;4819722;29;20949;-83
2022/05/10 05:27:31;;;;;;;8.80;6.73;;;;;;;18.73;41.44;95013.88;4786392;30;20526;-82
2022/05/10 05:29:56;;;;;;;8.73;7.70;;;;;;;18.95;40.56;95016.69;4781822;30;20436;-82
2022/05/10 05:32:27;;;;;;;9.17;8.17;;;;;;;19.01;40.25;95017.59;4775274;30;20190;-82
2022/05/10 05:34:52;;;;;;;8.43;7.33;;;;;;;18.86;40.14;95013.63;4801429;30;20770;-83
2022/05/10 05:37:33;;;;;;;7.80;7.00;;;;;;;19.04;40.19;95009.19;4801725;30;20416;-83
2022/05/10 05:40:10;;;;;;;10.00;6.97;;;;;;;18.59;41.05;95007.25;4785254;30;20327;-82
2022/05/10 05:42:36;;;;;;;9.33;7.20;;;;;;;18.92;40.58;95012.69;4801472;29;20513;-83
2022/05/10 05:45:04;;;;;;;8.23;7.43;;;;;;;19.10;40.19;95003.72;4785606;30;20423;-83
2022/05/10 05:47:30;;;;;;;7.97;7.07;;;;;;;18.72;40.69;95001.66;4781348;30;20477;-83
2022/05/10 05:49:56;;;;;;;7.47;6.73;;;;;;;19.15;39.75;95000.34;4789650;30;20432;-82
2022/05/10 05:52:22;;;;;;;7.03;5.90;;;;;;;19.66;38.79;95003.03;4808706;29;20426;-82
2022/05/10 05:54:53;;;;;;;13.03;6.67;;;;;;;20.15;38.18;94997.13;4790246;29;20209;-84
2022/05/10 05:57:19;;;;;;;10.70;6.07;;;;;;;20.28;37.55;94996.78;4801610;30;20415;-84
2022/05/10 05:59:45;;;;;;;11.83;6.10;;;;;;;19.90;37.92;95001.06;4801369;29;20824;-83
2022/05/10 06:02:16;;;;;;;17.67;7.77;;;;;;;20.45;37.20;94997.53;4781387;30;20430;-82
2022/05/10 06:04:42;;;;;;;13.40;6.17;;;;;;;19.91;38.42;94999.97;4785609;30;20624;-81
2022/05/10 06:07:09;;;;;;;5.93;5.10;;;;;;;19.70;38.05;95001.50;4809969;30;20510;-82
2022/05/10 06:09:39;;;;;;;13.57;6.63;;;;;;;19.76;38.04;95000.56;4804006;29;20185;-81
2022/05/10 06:12:06;;;;;;;9.40;5.33;;;;;;;20.09;37.08;94994.41;4788448;30;20455;-82
2022/05/10 06:14:34;;;;;;;7.90;5.00;;;;;;;20.88;36.21;94999.63;4787402;30;20447;-82
2022/05/10 06:17:00;;;;;;;16.87;6.90;;;;;;;21.31;35.42;94998.72;4803675;29;20430;-82
2022/05/10 06:19:27;;;;;;;13.47;5.40;;;;;;;21.27;35.21;95008.25;4783020;30;20827;-82
2022/05/10 06:21:53;;;;;;;8.10;5.20;;;;;;;21.12;35.73;95006.25;4785303;30;21047;-82
2022/05/10 06:24:19;;;;;;;7.00;4.37;;;;;;;21.51;34.50;95003.41;4800220;29;20439;-83
2022/05/10 06:26:44;;;;;;;5.83;4.30;;;;;;;21.29;35.07;94997.38;4782758;30;20455;-82
2022/05/10 06:29:10;;;;;;;10.93;4.10;;;;;;;21.78;33.93;95005.25;4787019;30;20550;-82
2022/05/10 06:31:36;;;;;;;4.13;3.50;;;;;;;21.83;33.51;95005.25;4812390;29;20184;-82
2022/05/10 06:34:02;;;;;;;6.20;3.10;;;;;;;21.57;33.43;95002.44;4807964;29;20189;-82
2022/05/10 06:36:28;;;;;;;4.27;3.87;;;;;;;21.22;34.54;94998.34;4822007;29;20207;-83
2022/05/10 06:38:53;;;;;;;6.80;4.60;;;;;;;21.47;34.69;95001.53;4792727;30;20435;-82
2022/05/10 06:41:19;;;;;;;7.97;4.17;;;;;;;21.49;34.33;94994.88;4798390;30;20221;-82
2022/05/10 06:43:45;;;;;;;10.77;5.03;;;;;;;22.44;32.64;94998.69;4804298;29;20642;-82
2022/05/10 06:46:13;;;;;;;8.20;4.33;;;;;;;21.84;34.44;94996.22;4787638;30;20220;-81
2022/05/10 06:48:39;;;;;;;13.23;3.80;;;;;;;22.26;33.57;94995.44;4788306;30;20522;-82
2022/05/10 06:51:09;;;;;;;5.83;3.47;;;;;;;22.35;32.14;94996.53;4803564;30;20430;-81
2022/05/10 06:53:36;;;;;;;3.10;2.80;;;;;;;21.81;32.94;95002.06;4786239;29;20526;-82
2022/05/10 06:56:02;;;;;;;4.40;3.93;;;;;;;21.53;33.99;94989.84;4786367;30;20434;-81
2022/05/10 06:58:28;;;;;;;11.10;3.80;;;;;;;22.11;33.51;95001.44;4785511;30;20485;-82
2022/05/10 07:00:53;;;;;;;5.83;3.70;;;;;;;22.11;33.58;95000.66;4789986;30;20451;-83
2022/05/10 07:03:28;;;;;;;7.23;4.77;;;;;;;22.23;32.68;95003.91;4805865;29;20454;-82
2022/05/10 07:05:55;;;;;;;6.93;4.53;;;;;;;22.74;32.57;95001.47;4802792;29;20192;-82
2022/05/10 07:08:21;;;;;;;5.27;4.17;;;;;;;22.77;32.02;94997.50;4801356;29;20450;-82
2022/05/10 07:10:47;;;;;;;4.90;3.73;;;;;;;23.06;32.23;95000.53;4791242;29;20412;-82
2022/05/10 07:13:18;;;;;;;11.00;4.33;;;;;;;22.69;32.36;94998.00;4801315;29;20438;-82
2022/05/10 07:15:44;;;;;;;10.37;4.30;;;;;;;21.49;34.20;94992.22;4797208;29;20432;-82
2022/05/10 07:18:10;;;;;;;5.10;4.67;;;;;;;22.64;32.91;94993.47;4788329;30;20420;-82
2022/05/10 07:20:36;;;;;;;7.13;4.53;;;;;;;22.84;32.80;94987.41;4777458;30;20460;-83
2022/05/10 07:23:02;;;;;;;7.80;4.13;;;;;;;23.25;31.96;94997.38;4786084;30;20443;-82
2022/05/10 07:25:28;;;;;;;6.53;3.63;;;;;;;23.01;32.19;94987.13;4804829;29;20249;-82
2022/05/10 07:27:55;;;;;;;4.70;4.30;;;;;;;23.55;31.40;94991.25;4804547;29;20210;-83
2022/05/10 07:30:22;;;;;;;9.17;3.77;;;;;;;23.88;30.95;94989.09;4772254;29;20453;-81
2022/05/10 07:32:48;;;;;;;5.80;3.83;;;;;;;23.84;31.15;94990.72;4786125;29;20417;-81
2022/05/10 07:35:14;;;;;;;5.60;5.00;;;;;;;23.52;31.55;94989.09;4804552;29;20436;-82
2022/05/10 07:37:43;;;;;;;6.23;4.50;;;;;;;23.79;31.41;94988.88;4782997;29;20520;-81
2022/05/10 07:40:24;;;;;;;12.57;4.67;;;;;;;23.92;30.93;94984.81;4776554;30;20231;-82
2022/05/10 07:42:50;;;;;;;3.87;3.33;;;;;;;23.95;29.56;94990.44;4768644;30;20463;-80
2022/05/10 07:45:15;;;;;;;3.27;2.90;;;;;;;24.45;28.51;94987.09;4765430;30;20422;-82
2022/05/10 07:47:44;;;;;;;4.63;3.97;;;;;;;23.85;29.73;94985.09;4764570;30;20293;-82
2022/05/10 07:50:13;;;;;;;8.47;4.20;;;;;;;23.80;29.43;94987.00;4766963;30;20317;-83
2022/05/10 07:52:47;;;;;;;8.87;4.23;;;;;;;24.14;28.42;94984.50;4761279;30;20445;-83
2022/05/10 07:55:13;;;;;;;5.00;3.30;;;;;;;24.61;27.71;94991.34;4766930;30;20444;-82
2022/05/10 07:57:40;;;;;;;6.67;3.17;;;;;;;24.55;27.59;94984.44;4767555;30;20451;-82
2022/05/10 08:00:12;;;;;;;5.93;3.90;;;;;;;24.32;27.79;94983.13;4777657;30;20191;-81
2022/05/10 08:02:47;;;;;;;6.77;3.27;;;;;;;25.09;26.03;94986.25;4767095;30;20496;-81
2022/05/10 08:05:18;;;;;;;5.60;3.23;;;;;;;24.33;26.57;94980.16;4765777;30;20449;-80
2022/05/10 08:07:43;;;;;;;4.17;2.73;;;;;;;24.41;26.54;94980.69;4777716;30;20461;-81
2022/05/10 08:10:18;;;;;;;4.80;3.70;;;;;;;24.77;26.16;94980.56;4778079;30;20445;-81
2022/05/10 08:13:21;;;;;;;4.67;3.03;;;;;;;25.29;25.06;94976.53;4759578;30;20286;-81
2022/05/10 08:15:47;;;;;;;4.00;2.67;;;;;;;25.21;24.93;94969.06;4764879;30;20458;-80
2022/05/10 08:18:13;;;;;;;5.30;3.43;;;;;;;25.22;25.16;94963.41;4769172;30;20440;-81
2022/05/10 08:20:42;;;;;;;5.03;2.77;;;;;;;24.44;26.08;94972.91;4766475;30;20509;-81
2022/05/10 08:23:29;;;;;;;6.47;3.27;;;;;;;24.64;26.06;94969.38;4764057;30;20516;-81
2022/05/10 08:26:20;;;;;;;4.50;2.63;;;;;;;25.62;24.44;94960.72;4760368;30;20439;-81
2022/05/10 08:29:13;;;;;;;4.67;2.70;;;;;;;25.53;25.62;94960.53;4750227;30;20470;-82
2022/05/10 08:32:11;;;;;;;4.00;3.37;;;;;;;25.79;25.07;94966.47;4762657;30;20433;-83
2022/05/10 08:34:49;;;;;;;4.70;3.20;;;;;;;25.22;25.48;94971.47;4766104;30;20432;-81
2022/05/10 08:37:14;;;;;;;3.20;2.70;;;;;;;25.31;25.46;94963.66;4774487;30;20445;-82
2022/05/10 08:39:40;;;;;;;3.03;2.20;;;;;;;26.41;23.72;94965.88;4767022;29;20458;-82
2022/05/10 08:42:25;;;;;;;2.70;2.17;;;;;;;26.70;23.53;94968.50;4793519;29;20284;-81
2022/05/10 08:44:57;;;;;;;2.97;2.67;;;;;;;26.45;23.62;94961.53;4778538;29;20274;-81
2022/05/10 08:47:24;;;;;;;3.03;2.50;;;;;;;26.17;23.91;94965.88;4778965;30;20626;-80
2022/05/10 08:49:57;;;;;;;3.03;2.00;;;;;;;25.86;24.26;94956.22;4793975;29;20508;-83
2022/05/10 08:52:47;;;;;;;3.90;2.77;;;;;;;25.87;24.42;94952.44;4782507;29;20545;-81
2022/05/10 08:55:21;;;;;;;6.90;2.97;;;;;;;26.68;23.35;94960.72;4786145;29;20816;-80
2022/05/10 08:57:53;;;;;;;2.63;2.37;;;;;;;26.38;23.56;94961.06;4780438;30;20431;-80
2022/05/10 09:00:32;;;;;;;3.17;2.97;;;;;;;27.46;22.06;94949.69;4780950;29;20443;-79
2022/05/10 09:03:00;;;;;;;3.60;2.73;;;;;;;27.41;21.96;94950.56;4773187;29;20420;-80
2022/05/10 09:05:28;;;;;;;3.30;2.60;;;;;;;27.14;22.14;94945.84;4784084;29;20447;-80
2022/05/10 09:08:03;;;;;;;3.30;2.13;;;;;;;27.28;22.47;94945.94;4769935;29;20972;-80
2022/05/10 09:10:40;;;;;;;2.53;2.20;;;;;;;28.13;21.10;94946.66;4794523;29;20445;-80
2022/05/10 09:13:14;;;;;;;2.57;2.37;;;;;;;26.40;22.98;94948.94;4788099;29;20860;-79
2022/05/10 09:16:04;;;;;;;7.10;1.73;;;;;;;25.91;23.88;94950.00;4773200;30;20518;-79
2022/05/10 09:18:36;;;;;;;3.83;1.80;;;;;;;24.46;25.87;94944.00;4787934;29;20866;-79
2022/05/10 09:21:32;;;;;;;3.00;2.20;;;;;;;25.18;25.04;94945.53;4781761;29;20439;-79
2022/05/10 09:24:33;;;;;;;2.67;2.47;;;;;;;26.32;23.94;94943.44;4801138;29;20453;-80
2022/05/10 09:27:10;;;;;;;3.37;2.00;;;;;;;27.61;22.35;94933.28;4792425;29;20463;-80
2022/05/10 09:29:46;;;;;;;3.63;2.33;;;;;;;27.95;22.03;94936.78;4790266;29;20495;-80
2022/05/10 09:35:26;;;;;;;2.73;2.30;;;;;;;27.70;22.32;94930.75;4795731;29;20523;-81
2022/05/10 09:37:59;;;;;;;2.83;2.20;;;;;;;28.17;22.02;94931.53;4776947;29;20491;-81
2022/05/10 09:40:35;;;;;;;4.10;2.60;;;;;;;27.75;22.59;94922.56;4783319;29;20509;-80
2022/05/10 09:43:22;;;;;;;2.43;2.10;;;;;;;28.03;22.25;94922.63;4792854;29;20514;-80
2022/05/10 09:46:10;;;;;;;2.23;2.03;;;;;;;27.77;22.97;94916.88;4770892;30;20448;-80
2022/05/10 09:48:38;;;;;;;2.23;2.03;;;;;;;27.36;22.83;94917.59;4794373;29;20894;-80
2022/05/10 09:51:24;;;;;;;1.63;1.53;;;;;;;26.85;23.51;94919.94;4790397;29;20443;-79
2022/05/10 09:53:52;;;;;;;3.23;1.83;;;;;;;26.63;23.34;94919.69;4773106;29;20451;-79
2022/05/10 09:56:23;;;;;;;2.60;2.40;;;;;;;27.25;23.11;94908.91;4802979;29;20427;-80
2022/05/10 09:58:54;;;;;;;1.70;1.60;;;;;;;27.83;22.42;94913.81;4799887;29;20443;-79
2022/05/10 10:01:46;;;;;;;2.93;2.30;;;;;;;27.91;21.93;94911.56;4791289;29;20431;-79
2022/05/10 10:04:21;;;;;;;2.87;2.33;;;;;;;27.27;22.98;94902.13;4797066;30;20474;-80
2022/05/10 10:07:13;;;;;;;2.60;2.40;;;;;;;27.55;22.25;94909.50;4768784;30;20463;-80
2022/05/10 10:09:42;;;;;;;2.90;2.70;;;;;;;27.88;22.14;94904.84;4766651;30;20985;-79
2022/05/10 10:12:26;;;;;;;1.90;1.80;;;;;;;29.07;20.77;94895.97;4805290;29;20507;-80
2022/05/10 10:14:51;;;;;;;3.83;2.20;;;;;;;29.63;20.03;94891.09;4779640;29;20508;-80
2022/05/10 10:17:32;;;;;;;2.90;2.70;;;;;;;29.74;19.99;94880.88;4781199;30;20902;-80
2022/05/10 10:20:13;;;;;;;2.17;1.97;;;;;;;28.16;21.76;94883.38;4791995;29;20784;-79
2022/05/10 10:22:44;;;;;;;3.10;2.00;;;;;;;27.62;22.53;94880.31;4785128;29;20425;-79
2022/05/10 10:25:26;;;;;;;1.97;1.87;;;;;;;26.53;23.69;94883.03;4792105;29;20480;-80
2022/05/10 10:27:56;;;;;;;4.47;2.63;;;;;;;27.94;22.65;94875.97;4788278;29;20523;-80
2022/05/10 10:30:27;;;;;;;3.87;2.60;;;;;;;28.14;21.52;94874.81;4798801;29;20474;-80
2022/05/10 10:33:21;;;;;;;3.03;2.37;;;;;;;28.17;21.77;94869.63;4799683;30;20446;-81
2022/05/10 10:36:03;;;;;;;3.43;2.40;;;;;;;28.56;21.62;94870.97;4797619;29;20452;-80
2022/05/10 10:38:31;;;;;;;4.50;2.10;;;;;;;28.26;21.38;94872.38;4782680;29;20510;-80
2022/05/10 10:41:12;;;;;;;4.63;2.60;;;;;;;27.01;22.90;94861.38;4805177;29;20470;-80
2022/05/10 10:44:09;;;;;;;2.83;2.50;;;;;;;26.95;23.25;94862.56;4781789;30;20447;-80
2022/05/10 10:46:44;;;;;;;6.07;2.53;;;;;;;27.97;22.56;94856.56;4780342;29;20475;-80
2022/05/10 10:49:15;;;;;;;2.53;2.33;;;;;;;27.89;22.04;94868.81;4792888;29;20444;-80
2022/05/10 10:51:41;;;;;;;2.43;1.50;;;;;;;26.48;23.03;94858.94;4796852;29;20453;-80
2022/05/10 10:54:15;;;;;;;3.10;2.30;;;;;;;26.94;22.12;94852.09;4783753;29;20909;-79
2022/05/10 10:56:52;;;;;;;2.27;2.07;;;;;;;26.65;22.69;94853.91;4782599;30;20277;-79
2022/05/10 10:59:40;;;;;;;2.40;2.20;;;;;;;26.58;22.23;94850.75;4791739;29;20440;-79
2022/05/10 11:02:47;;;;;;;4.00;2.50;;;;;;;26.74;22.99;94845.19;4781071;30;20417;-79
2022/05/10 11:05:19;;;;;;;3.50;2.93;;;;;;;28.39;21.55;94843.84;4751373;30;20469;-81
2022/05/10 11:07:44;;;;;;;2.30;1.90;;;;;;;28.59;21.00;94834.53;4775597;30;20459;-80
2022/05/10 11:10:23;;;;;;;2.80;2.30;;;;;;;29.68;20.14;94842.41;4763471;30;20525;-80
2022/05/10 11:13:20;;;;;;;3.83;2.20;;;;;;;30.53;19.11;94839.53;4781134;29;20754;-80
2022/05/10 11:15:55;;;;;;;2.40;2.03;;;;;;;30.01;19.45;94833.19;4748367;29;20438;-79
2022/05/10 11:18:40;;;;;;;5.10;2.13;;;;;;;30.89;19.01;94826.81;4784752;30;20901;-80
2022/05/10 11:21:19;;;;;;;2.40;2.20;;;;;;;31.17;18.03;94821.91;4768038;30;20543;-80
2022/05/10 11:23:44;;;;;;;5.07;2.20;;;;;;;31.02;18.08;94816.97;4785348;30;20782;-80
2022/05/10 11:26:21;;;;;;;1.93;1.67;;;;;;;30.24;18.84;94817.69;4785085;29;20515;-80
2022/05/10 11:29:02;;;;;;;2.80;2.40;;;;;;;30.73;19.05;94815.69;4768155;30;20314;-79
2022/05/10 11:31:48;;;;;;;3.40;2.43;;;;;;;29.57;19.15;94808.72;4781013;30;20447;-79
2022/05/10 11:34:40;;;;;;;5.13;2.10;;;;;;;30.32;18.64;94808.84;4783226;29;20468;-79
2022/05/10 11:37:10;;;;;;;2.90;2.13;;;;;;;30.60;18.59;94813.94;4802062;30;20509;-80
2022/05/10 11:39:47;;;;;;;3.83;2.20;;;;;;;30.83;18.84;94796.47;4785043;29;20938;-80
2022/05/10 11:42:18;;;;;;;2.53;2.33;;;;;;;30.65;18.23;94795.66;4797840;30;20447;-80
2022/05/10 11:45:41;;;;;;;1.90;1.80;;;;;;;30.97;17.58;94795.53;4786501;29;20824;-80
2022/05/10 11:48:18;;;;;;;1.70;1.60;;;;;;;31.21;17.49;94792.28;4728236;30;20480;-80
2022/05/10 11:53:42;;;;;;;3.60;1.93;;;;;;;30.79;16.94;94776.59;4772575;30;20457;-79
2022/05/10 11:56:09;;;;;;;2.70;1.90;;;;;;;30.16;17.60;94773.34;4784205;29;20514;-79
2022/05/10 11:58:36;;;;;;;1.70;1.60;;;;;;;28.93;17.73;94769.38;4784715;29;20440;-80
2022/05/10 12:01:11;;;;;;;4.53;1.70;;;;;;;30.63;16.92;94775.50;4797450;29;20451;-79
2022/05/10 12:03:36;;;;;;;6.33;1.80;;;;;;;30.49;17.84;94770.25;4767279;30;20470;-79
2022/05/10 12:06:23;;;;;;;3.10;2.07;;;;;;;29.93;19.39;94764.59;4794446;29;20435;-79
2022/05/10 12:08:54;;;;;;;4.70;2.60;;;;;;;31.70;17.35;94763.00;4800152;29;20284;-80
2022/05/10 12:11:28;;;;;;;2.40;2.20;;;;;;;32.61;16.89;94758.00;4788339;29;20436;-80
2022/05/10 12:22:19;;;;;;;3.20;2.03;;;;;;;32.88;16.79;94751.22;4793586;29;20730;-79
2022/05/10 12:24:47;;;;;;;3.67;2.53;;;;;;;32.39;16.95;94734.72;4782188;30;20978;-80
2022/05/10 12:27:12;;;;;;;3.93;2.27;;;;;;;33.09;16.54;94739.50;4783277;29;20496;-79
2022/05/10 12:29:38;;;;;;;2.83;2.60;;;;;;;33.27;16.54;94734.69;4778677;29;20460;-79
2022/05/10 12:32:03;;;;;;;5.63;2.00;;;;;;;32.70;15.70;94738.16;4786654;30;20225;-79
2022/05/10 12:34:47;;;;;;;2.97;1.60;;;;;;;31.69;16.02;94723.53;4800913;29;20209;-79
2022/05/10 12:37:24;;;;;;;2.50;2.33;;;;;;;31.73;16.24;94723.69;4788705;29;20179;-80
2022/05/10 12:39:52;;;;;;;2.80;2.13;;;;;;;32.21;15.82;94723.22;4790047;29;20505;-80